Artemus, Kentucky
Current Conditions -  °F | °C
As of 3:50 PM on Thursday 18 Dec 2014 (Local Time) from K1A6 Reporting Station
Overcast Overcast  
Wind Chill: 36°   Ceiling: 4800
Heat Index: 40°   Visibility: 10mi
Dew Point: 28°   Wind: 7mph
Humidity: 62%   Direction: 300°WNW
Pressure: 30.17"   Gusts: NA
Location:  36.83°N, 83.84°W
Report Text: K1A6 182050Z AUTO 30006KT 10SM OVC048 05/M02 A3017 RMK AO2 T00461021
Loading
Personal Weather Stations






























Interactive Weather Map New forecast layout! Learn more

10-Day Weather Forecast

Advertisements
Track Severe Weather on mobile